Time;durP1;ratioP1;P1;durP2;ratioP2;P2;SDS_P1;SDS_P2;PMS_P1;PMS_P2;Temp;Humidity;BMP_temperature;BMP_pressure;BME280_temperature;BME280_humidity;BME280_pressure;Samples;Min_cycle;Max_cycle;Signal;HPM_P1;HPM_P2
2023/11/08 00:01:00;;;;;;;4.30;1.05;;;8.80;99.90;;;;;;4895423;28;90434;-78
2023/11/08 00:03:26;;;;;;;3.33;1.00;;;8.80;99.90;;;;;;4896135;28;86486;-76
2023/11/08 00:05:52;;;;;;;3.40;1.10;;;8.80;99.90;;;;;;4895213;28;86862;-76
2023/11/08 00:08:17;;;;;;;3.83;1.20;;;8.80;99.90;;;;;;4897927;28;89019;-76
2023/11/08 00:10:44;;;;;;;5.70;1.10;;;8.80;99.90;;;;;;4895253;28;89674;-75
2023/11/08 00:13:09;;;;;;;6.47;1.52;;;8.80;99.90;;;;;;4897220;28;86434;-78
2023/11/08 00:15:35;;;;;;;4.38;1.05;;;8.80;99.90;;;;;;4898746;28;86240;-78
2023/11/08 00:18:01;;;;;;;4.90;0.90;;;8.80;99.90;;;;;;4897242;28;90907;-77
2023/11/08 00:20:26;;;;;;;2.35;1.10;;;8.70;99.90;;;;;;4895443;28;89522;-76
2023/11/08 00:22:52;;;;;;;6.63;1.33;;;8.70;99.90;;;;;;4897428;28;87054;-76
2023/11/08 00:25:18;;;;;;;3.90;0.93;;;8.70;99.90;;;;;;4897447;28;86156;-77
2023/11/08 00:27:43;;;;;;;5.15;1.40;;;8.60;99.90;;;;;;4896151;28;90835;-78
2023/11/08 00:30:09;;;;;;;3.85;1.20;;;8.60;99.90;;;;;;4898308;28;88774;-77
2023/11/08 00:32:35;;;;;;;4.22;0.93;;;8.60;99.90;;;;;;4898494;28;87920;-75
2023/11/08 00:35:01;;;;;;;1.70;0.90;;;8.50;99.90;;;;;;4896396;28;87475;-80
2023/11/08 00:37:27;;;;;;;3.78;1.10;;;8.50;99.90;;;;;;4898519;28;88533;-76
2023/11/08 00:39:52;;;;;;;4.55;1.38;;;8.50;99.90;;;;;;4895642;28;90014;-75
2023/11/08 00:42:18;;;;;;;1.98;0.85;;;8.50;99.90;;;;;;4895001;28;86400;-79
2023/11/08 00:44:43;;;;;;;6.68;1.05;;;8.50;99.90;;;;;;4897834;28;86737;-75
2023/11/08 00:47:09;;;;;;;5.05;1.00;;;8.50;99.90;;;;;;4896462;28;90257;-76
2023/11/08 00:49:36;;;;;;;7.72;1.35;;;8.50;99.90;;;;;;4897400;28;90110;-76
2023/11/08 00:52:01;;;;;;;5.93;0.80;;;8.50;99.90;;;;;;4896597;28;87238;-76
2023/11/08 00:54:27;;;;;;;2.63;0.65;;;8.50;99.90;;;;;;4896688;28;86445;-78
2023/11/08 00:56:53;;;;;;;5.15;1.00;;;8.50;99.90;;;;;;4895967;28;89401;-79
2023/11/08 00:59:19;;;;;;;4.20;0.85;;;8.40;99.90;;;;;;4898087;28;87179;-78
2023/11/08 01:01:45;;;;;;;4.22;1.02;;;8.40;99.90;;;;;;4897265;28;86704;-76
2023/11/08 01:04:11;;;;;;;10.85;2.13;;;8.40;99.90;;;;;;4898167;28;86436;-75
2023/11/08 01:06:38;;;;;;;2.13;1.10;;;8.40;99.90;;;;;;4896903;28;90471;-77
2023/11/08 01:09:08;;;;;;;3.33;1.30;;;8.40;99.90;;;;;;4894988;28;89440;-75
2023/11/08 01:11:35;;;;;;;4.63;1.02;;;8.40;99.90;;;;;;4900965;28;86623;-75
2023/11/08 01:14:01;;;;;;;6.47;1.30;;;8.40;99.90;;;;;;4897483;28;87236;-78
2023/11/08 01:16:28;;;;;;;2.72;1.35;;;8.30;99.90;;;;;;4899639;28;90614;-77
2023/11/08 01:18:56;;;;;;;5.85;1.65;;;8.30;99.90;;;;;;4895944;28;88913;-77
2023/11/08 01:21:22;;;;;;;5.68;1.13;;;8.30;99.90;;;;;;4898433;28;86830;-76
2023/11/08 01:23:48;;;;;;;4.68;1.13;;;8.30;99.90;;;;;;4899589;28;86498;-76
2023/11/08 01:26:14;;;;;;;9.18;1.33;;;8.30;99.90;;;;;;4902129;28;87942;-77
2023/11/08 01:28:41;;;;;;;5.20;1.60;;;8.20;99.90;;;;;;4900966;28;86250;-75
2023/11/08 01:31:07;;;;;;;7.05;1.50;;;8.20;99.90;;;;;;4899153;28;87298;-77
2023/11/08 01:33:32;;;;;;;6.57;1.58;;;8.20;99.90;;;;;;4898398;28;86672;-76
2023/11/08 01:35:58;;;;;;;5.90;1.38;;;8.20;99.90;;;;;;4899370;28;91254;-76
2023/11/08 01:38:24;;;;;;;6.05;1.73;;;8.10;99.90;;;;;;4900120;28;89192;-80
2023/11/08 01:40:51;;;;;;;4.57;1.02;;;8.10;99.90;;;;;;4896019;28;86609;-77
2023/11/08 01:43:36;;;;;;;4.03;1.40;;;8.10;99.90;;;;;;4895956;28;86294;-77
2023/11/08 01:46:11;;;;;;;7.35;1.30;;;8.10;99.90;;;;;;4897642;28;87474;-76
2023/11/08 01:48:39;;;;;;;3.58;1.20;;;8.00;99.90;;;;;;4898957;28;90377;-77
2023/11/08 01:51:06;;;;;;;6.95;1.50;;;8.10;99.90;;;;;;4899765;28;86940;-77
2023/11/08 01:53:39;;;;;;;4.55;1.10;;;8.00;99.90;;;;;;4900698;28;86067;-78
2023/11/08 01:56:12;;;;;;;5.55;1.38;;;8.00;99.90;;;;;;4899505;28;95183;-76
2023/11/08 01:58:38;;;;;;;5.35;1.85;;;8.00;99.90;;;;;;4901730;28;86539;-78
2023/11/08 02:01:13;;;;;;;9.18;1.40;;;8.00;99.90;;;;;;4899175;28;86971;-75
2023/11/08 02:03:40;;;;;;;6.72;1.55;;;7.90;99.90;;;;;;4902860;28;86571;-75
2023/11/08 02:06:07;;;;;;;7.55;1.42;;;7.90;99.90;;;;;;4903123;28;88522;-78
2023/11/08 02:08:38;;;;;;;6.72;1.65;;;7.90;99.90;;;;;;4898373;28;90489;-78
2023/11/08 02:11:04;;;;;;;7.63;1.90;;;7.90;99.90;;;;;;4898106;28;91741;-79
2023/11/08 02:13:33;;;;;;;4.45;1.50;;;7.80;99.90;;;;;;4897902;28;86476;-78
2023/11/08 02:15:59;;;;;;;4.40;1.25;;;7.80;99.90;;;;;;4901026;28;89124;-79
2023/11/08 02:18:26;;;;;;;6.82;1.90;;;7.80;99.90;;;;;;4899829;28;89970;-79
2023/11/08 02:20:52;;;;;;;7.88;1.42;;;7.80;99.90;;;;;;4898354;28;86669;-76
2023/11/08 02:23:18;;;;;;;8.40;1.67;;;7.80;99.90;;;;;;4899441;28;87118;-78
2023/11/08 02:25:45;;;;;;;10.73;1.58;;;7.80;99.90;;;;;;4897947;28;90801;-76
2023/11/08 02:28:11;;;;;;;8.25;1.60;;;7.80;99.90;;;;;;4896001;28;89917;-78
2023/11/08 02:30:37;;;;;;;9.23;2.00;;;7.80;99.90;;;;;;4898190;28;86725;-76
2023/11/08 02:33:03;;;;;;;9.48;1.63;;;7.80;99.90;;;;;;4893860;28;86345;-76
2023/11/08 02:35:29;;;;;;;6.45;1.58;;;7.80;99.90;;;;;;4891769;28;90219;-79
2023/11/08 02:37:56;;;;;;;5.85;1.98;;;7.80;99.90;;;;;;4896111;28;89317;-78
2023/11/08 02:40:22;;;;;;;6.38;1.35;;;7.80;99.90;;;;;;4895055;28;86495;-79
2023/11/08 02:42:47;;;;;;;9.95;1.55;;;7.70;99.90;;;;;;4897311;28;86648;-77
2023/11/08 02:45:13;;;;;;;4.55;1.33;;;7.70;99.90;;;;;;4895788;28;90702;-79
2023/11/08 02:47:40;;;;;;;4.60;1.35;;;7.80;99.90;;;;;;4893972;28;89226;-76
2023/11/08 02:50:07;;;;;;;9.45;2.15;;;7.80;99.90;;;;;;4899764;28;86688;-76
2023/11/08 02:52:33;;;;;;;7.72;1.63;;;7.80;99.90;;;;;;4895968;28;86278;-76
2023/11/08 02:54:59;;;;;;;9.02;1.60;;;7.80;99.90;;;;;;4895394;28;90337;-77
2023/11/08 02:57:26;;;;;;;6.70;1.60;;;7.80;99.90;;;;;;4899440;28;89785;-79
2023/11/08 02:59:52;;;;;;;2.85;1.33;;;7.80;99.90;;;;;;4897779;28;87003;-77
2023/11/08 03:02:19;;;;;;;9.90;1.45;;;7.80;99.90;;;;;;4901028;28;86607;-77
2023/11/08 03:04:45;;;;;;;5.15;1.35;;;7.80;99.90;;;;;;4894164;28;89818;-80
2023/11/08 03:07:12;;;;;;;9.63;1.23;;;7.80;99.90;;;;;;4901635;28;89641;-75
2023/11/08 03:09:39;;;;;;;4.45;1.33;;;7.80;99.90;;;;;;4897705;28;86517;-77
2023/11/08 03:12:05;;;;;;;9.55;1.83;;;7.70;99.90;;;;;;4899711;28;86329;-76
2023/11/08 03:14:31;;;;;;;11.10;1.48;;;7.70;99.90;;;;;;4897155;28;90486;-77
2023/11/08 03:16:58;;;;;;;7.55;3.03;;;7.70;99.90;;;;;;4901302;28;89596;-77
2023/11/08 03:19:24;;;;;;;7.88;1.80;;;7.70;99.90;;;;;;4898443;28;86934;-79
2023/11/08 03:21:52;;;;;;;12.10;2.10;;;7.70;99.90;;;;;;4898252;28;86604;-77
2023/11/08 03:24:18;;;;;;;6.05;1.50;;;7.70;99.90;;;;;;4898730;28;90665;-80
2023/11/08 03:26:46;;;;;;;8.20;1.73;;;7.70;99.90;;;;;;4898655;28;87824;-79
2023/11/08 03:29:12;;;;;;;6.93;1.10;;;7.70;99.90;;;;;;4898951;28;86021;-76
2023/11/08 03:31:37;;;;;;;8.95;1.30;;;7.70;99.90;;;;;;4897125;28;87999;-76
2023/11/08 03:34:03;;;;;;;4.50;1.00;;;7.70;99.90;;;;;;4896944;28;89331;-77
2023/11/08 03:36:30;;;;;;;6.97;1.38;;;7.70;99.90;;;;;;4913849;28;90146;-75
2023/11/08 03:38:57;;;;;;;4.68;1.23;;;7.70;99.90;;;;;;4902306;28;86620;-79
2023/11/08 03:41:24;;;;;;;5.10;1.83;;;7.70;99.90;;;;;;4898733;28;86504;-76
2023/11/08 03:43:54;;;;;;;5.32;1.65;;;7.70;99.90;;;;;;4896941;28;90619;-80
2023/11/08 03:46:20;;;;;;;15.77;1.40;;;7.70;99.90;;;;;;4897548;28;86913;-76
2023/11/08 03:48:49;;;;;;;5.88;1.38;;;7.70;99.90;;;;;;4898637;28;87438;-77
2023/11/08 03:51:14;;;;;;;12.52;2.78;;;7.70;99.90;;;;;;4897347;28;86742;-76
2023/11/08 03:53:40;;;;;;;3.28;1.17;;;7.70;99.90;;;;;;4898185;28;90778;-77
2023/11/08 03:56:06;;;;;;;6.28;1.40;;;7.70;99.90;;;;;;4896577;28;89582;-78
2023/11/08 03:58:32;;;;;;;7.32;2.03;;;7.70;99.90;;;;;;4900187;28;86951;-76
2023/11/08 04:00:57;;;;;;;7.70;1.50;;;7.70;99.90;;;;;;4898850;28;86195;-76
2023/11/08 04:03:23;;;;;;;5.00;1.35;;;7.70;99.90;;;;;;4895534;28;90685;-76
2023/11/08 04:05:51;;;;;;;9.35;2.17;;;7.70;99.90;;;;;;4898805;28;90166;-79
2023/11/08 04:08:17;;;;;;;4.32;1.75;;;7.70;99.90;;;;;;4898782;28;86960;-76
2023/11/08 04:10:43;;;;;;;6.57;1.52;;;7.70;99.90;;;;;;4897909;28;86724;-76
2023/11/08 04:13:08;;;;;;;4.40;1.48;;;7.80;99.90;;;;;;4897741;28;90981;-77
2023/11/08 04:15:34;;;;;;;7.65;1.75;;;7.80;99.90;;;;;;4898660;28;89674;-76
2023/11/08 04:18:00;;;;;;;12.65;2.28;;;7.80;99.90;;;;;;4897648;28;88108;-77
2023/11/08 04:20:25;;;;;;;10.13;2.03;;;7.80;99.90;;;;;;4899349;28;86730;-76
2023/11/08 04:22:51;;;;;;;9.45;2.92;;;7.80;99.90;;;;;;4893553;28;90219;-79
2023/11/08 04:25:17;;;;;;;8.15;1.98;;;7.80;99.90;;;;;;4901855;28;87031;-76
2023/11/08 04:27:42;;;;;;;4.38;1.58;;;7.80;99.90;;;;;;4897077;28;87049;-76
2023/11/08 04:30:08;;;;;;;8.02;1.95;;;7.90;99.90;;;;;;4897488;28;86709;-77
2023/11/08 04:32:34;;;;;;;8.07;2.05;;;7.90;99.90;;;;;;4897986;28;91973;-77
2023/11/08 04:35:01;;;;;;;7.63;2.17;;;7.90;99.90;;;;;;4894823;28;88783;-76
2023/11/08 04:37:27;;;;;;;12.88;2.13;;;7.90;99.90;;;;;;4893261;28;86805;-78
2023/11/08 04:39:53;;;;;;;15.18;1.75;;;7.90;99.90;;;;;;4895092;28;87342;-76
2023/11/08 04:42:19;;;;;;;11.23;1.55;;;7.90;99.90;;;;;;4895093;28;90366;-79
2023/11/08 04:44:50;;;;;;;5.78;1.42;;;8.00;99.90;;;;;;4898851;28;89554;-77
2023/11/08 04:47:19;;;;;;;8.25;1.90;;;8.00;99.90;;;;;;4898538;28;87098;-76
2023/11/08 04:49:50;;;;;;;3.92;1.33;;;8.00;99.90;;;;;;4898435;28;86955;-76
2023/11/08 04:52:17;;;;;;;6.38;1.65;;;8.00;99.90;;;;;;4899572;28;90539;-77
2023/11/08 04:54:45;;;;;;;11.43;2.30;;;8.00;99.90;;;;;;4896108;28;88028;-76
2023/11/08 04:57:16;;;;;;;8.95;2.33;;;8.00;99.90;;;;;;4897471;28;86116;-76
2023/11/08 04:59:42;;;;;;;8.05;1.98;;;8.00;99.90;;;;;;4896029;28;86715;-79
2023/11/08 05:02:09;;;;;;;11.82;1.92;;;8.10;99.90;;;;;;4896537;28;89975;-78
2023/11/08 05:04:35;;;;;;;9.20;1.90;;;8.10;99.90;;;;;;4899391;28;88396;-76
2023/11/08 05:07:03;;;;;;;7.38;1.98;;;8.10;99.90;;;;;;4896014;28;86563;-76
2023/11/08 05:09:28;;;;;;;10.82;2.20;;;8.10;99.90;;;;;;4898054;28;87498;-77
2023/11/08 05:11:54;;;;;;;11.80;1.90;;;8.10;99.90;;;;;;4896825;28;89989;-76
2023/11/08 05:14:20;;;;;;;9.77;2.10;;;8.10;99.90;;;;;;4899076;28;90125;-77
2023/11/08 05:16:45;;;;;;;11.32;2.05;;;8.20;99.90;;;;;;4899769;28;86554;-79
2023/11/08 05:19:11;;;;;;;11.43;2.38;;;8.30;99.90;;;;;;4894652;28;86915;-77
2023/11/08 05:21:37;;;;;;;8.27;2.17;;;8.30;99.90;;;;;;4896268;28;90518;-78
2023/11/08 05:24:02;;;;;;;7.55;2.40;;;8.30;99.90;;;;;;4898093;28;89594;-77
2023/11/08 05:26:28;;;;;;;8.13;2.10;;;8.30;99.90;;;;;;4896087;28;88473;-79
2023/11/08 05:28:54;;;;;;;12.05;2.90;;;8.40;99.90;;;;;;4897967;28;86353;-77
2023/11/08 05:31:21;;;;;;;10.80;2.47;;;8.40;99.90;;;;;;4896618;28;90354;-76
2023/11/08 05:33:47;;;;;;;8.05;3.17;;;8.30;99.90;;;;;;4896481;28;89891;-77
2023/11/08 05:36:16;;;;;;;8.95;1.98;;;8.30;99.90;;;;;;4895996;28;86605;-77
2023/11/08 05:38:42;;;;;;;14.23;3.05;;;8.30;99.90;;;;;;4896508;28;86407;-76
2023/11/08 05:41:07;;;;;;;8.77;2.25;;;8.30;99.90;;;;;;4910775;28;90227;-76
2023/11/08 05:43:33;;;;;;;11.13;2.40;;;8.30;99.90;;;;;;4895185;28;89730;-76
2023/11/08 05:45:59;;;;;;;8.77;2.22;;;8.30;99.90;;;;;;4897220;28;86479;-76
2023/11/08 05:48:24;;;;;;;9.63;2.50;;;8.20;99.90;;;;;;4900471;28;86442;-77
2023/11/08 05:50:50;;;;;;;6.10;2.03;;;8.30;99.90;;;;;;4900276;28;89483;-76
2023/11/08 05:53:17;;;;;;;10.52;2.22;;;8.20;99.90;;;;;;4894737;28;86212;-75
2023/11/08 05:55:43;;;;;;;11.90;2.72;;;8.20;99.90;;;;;;4897984;28;86677;-76
2023/11/08 05:58:08;;;;;;;11.02;2.25;;;8.20;99.90;;;;;;4894822;28;86875;-76
2023/11/08 06:00:34;;;;;;;12.45;3.08;;;8.20;99.90;;;;;;4895204;28;87349;-79
2023/11/08 06:03:01;;;;;;;9.73;2.40;;;8.20;99.90;;;;;;4896489;28;89325;-76
2023/11/08 06:05:29;;;;;;;8.77;2.05;;;8.30;99.90;;;;;;4895082;28;86780;-77
2023/11/08 06:07:56;;;;;;;13.18;2.35;;;8.30;99.90;;;;;;4896469;28;86796;-76
2023/11/08 06:10:22;;;;;;;11.20;2.42;;;8.30;99.90;;;;;;4896398;28;90845;-77
2023/11/08 06:12:48;;;;;;;9.45;2.40;;;8.30;99.90;;;;;;4892650;28;89008;-76
2023/11/08 06:15:14;;;;;;;8.68;2.08;;;8.30;99.90;;;;;;4892134;28;87940;-75
2023/11/08 06:17:40;;;;;;;8.23;2.17;;;8.30;99.90;;;;;;4895660;28;86608;-76
2023/11/08 06:20:08;;;;;;;9.52;2.65;;;8.30;99.90;;;;;;4895128;28;89266;-76
2023/11/08 06:22:34;;;;;;;9.70;2.53;;;8.40;99.90;;;;;;4895401;28;86568;-77
2023/11/08 06:25:00;;;;;;;17.60;3.42;;;8.40;99.90;;;;;;4894849;28;86543;-76
2023/11/08 06:27:26;;;;;;;9.93;2.15;;;8.40;99.90;;;;;;4900085;28;85902;-77
2023/11/08 06:29:51;;;;;;;9.80;2.13;;;8.40;99.90;;;;;;4899489;28;90494;-79
2023/11/08 06:32:20;;;;;;;13.43;2.30;;;8.40;99.90;;;;;;4896490;28;89748;-77
2023/11/08 06:34:46;;;;;;;9.85;2.00;;;8.40;99.90;;;;;;4897725;28;86787;-76
2023/11/08 06:37:13;;;;;;;9.95;2.20;;;8.40;99.90;;;;;;4896855;28;86995;-77
2023/11/08 06:39:39;;;;;;;8.57;2.10;;;8.50;99.90;;;;;;4897304;28;86004;-79
2023/11/08 06:42:05;;;;;;;11.02;2.08;;;8.50;99.90;;;;;;4896079;28;90079;-77
2023/11/08 06:44:31;;;;;;;11.75;2.55;;;8.50;99.90;;;;;;4897972;28;86725;-80
2023/11/08 06:46:57;;;;;;;12.40;2.20;;;8.50;99.90;;;;;;4896420;28;86674;-77
2023/11/08 06:49:23;;;;;;;13.02;3.00;;;8.50;99.90;;;;;;4899261;28;90260;-76
2023/11/08 06:51:48;;;;;;;10.27;2.85;;;8.60;99.90;;;;;;4896466;28;91477;-78
2023/11/08 06:54:14;;;;;;;15.15;2.55;;;8.50;99.90;;;;;;4895882;28;91150;-77
2023/11/08 06:56:40;;;;;;;11.50;3.13;;;8.60;99.90;;;;;;4895268;28;88158;-77
2023/11/08 06:59:06;;;;;;;11.02;2.58;;;8.60;99.90;;;;;;4898662;28;90941;-75
2023/11/08 07:01:34;;;;;;;12.60;3.15;;;8.50;99.90;;;;;;4896000;28;92561;-76
2023/11/08 07:04:00;;;;;;;13.90;3.10;;;8.50;99.90;;;;;;4894807;28;92526;-76
2023/11/08 07:06:26;;;;;;;12.02;2.35;;;8.50;99.90;;;;;;4899514;28;87642;-76
2023/11/08 07:08:51;;;;;;;8.93;2.55;;;8.40;99.90;;;;;;4895986;28;91202;-76
2023/11/08 07:11:17;;;;;;;6.97;2.30;;;8.40;99.90;;;;;;4897683;28;91042;-78
2023/11/08 07:13:44;;;;;;;16.42;3.00;;;8.40;99.90;;;;;;4895294;28;91156;-76
2023/11/08 07:16:09;;;;;;;12.48;3.20;;;8.40;99.90;;;;;;4899352;28;87512;-78
2023/11/08 07:18:35;;;;;;;11.52;2.45;;;8.30;99.90;;;;;;4897885;28;90299;-77
2023/11/08 07:21:01;;;;;;;10.93;2.45;;;8.30;99.90;;;;;;4895612;28;88059;-80
2023/11/08 07:23:27;;;;;;;9.88;2.40;;;8.30;99.90;;;;;;4895979;28;91050;-77
2023/11/08 07:25:52;;;;;;;11.52;3.03;;;8.30;99.90;;;;;;4892859;28;88636;-77
2023/11/08 07:28:18;;;;;;;15.30;2.97;;;8.30;99.90;;;;;;4896620;28;89332;-76
2023/11/08 07:30:45;;;;;;;8.55;2.47;;;8.30;99.90;;;;;;4891879;28;91492;-76
2023/11/08 07:33:12;;;;;;;9.18;2.10;;;8.30;99.90;;;;;;4893055;28;88164;-77
2023/11/08 07:35:38;;;;;;;12.07;2.20;;;8.30;99.90;;;;;;4893954;28;87385;-74
2023/11/08 07:38:04;;;;;;;8.23;1.90;;;8.30;99.90;;;;;;4888952;28;91242;-75
2023/11/08 07:40:30;;;;;;;10.50;2.40;;;8.30;99.90;;;;;;4895748;28;91242;-77
2023/11/08 07:42:56;;;;;;;8.13;2.20;;;8.40;99.90;;;;;;4896355;28;90560;-75
2023/11/08 07:45:21;;;;;;;14.57;2.75;;;8.40;99.90;;;;;;4895825;28;88432;-77
2023/11/08 07:47:47;;;;;;;13.10;3.03;;;8.50;99.90;;;;;;4897844;28;91007;-74
2023/11/08 07:50:14;;;;;;;13.93;3.67;;;8.50;99.90;;;;;;4893447;28;92163;-76
2023/11/08 07:52:42;;;;;;;13.05;2.90;;;8.60;99.90;;;;;;4893716;28;93289;-75
2023/11/08 07:55:11;;;;;;;16.33;2.88;;;8.60;99.90;;;;;;4890161;28;87693;-77
2023/11/08 07:57:39;;;;;;;13.15;3.00;;;8.70;99.90;;;;;;4886862;28;88069;-77
2023/11/08 08:00:08;;;;;;;10.88;2.50;;;8.70;99.90;;;;;;4889117;28;88162;-75
2023/11/08 08:02:34;;;;;;;12.60;3.78;;;8.80;99.90;;;;;;4889436;28;88415;-75
2023/11/08 08:04:59;;;;;;;9.93;2.08;;;8.80;99.90;;;;;;4897492;28;87567;-75
2023/11/08 08:07:27;;;;;;;17.58;5.75;;;8.80;99.90;;;;;;4894997;28;90428;-75
2023/11/08 08:09:54;;;;;;;17.10;3.67;;;8.80;99.90;;;;;;4890580;28;91841;-78
2023/11/08 08:12:20;;;;;;;11.70;2.53;;;8.90;99.90;;;;;;4894126;28;91256;-74
2023/11/08 08:14:45;;;;;;;15.60;4.65;;;8.80;99.90;;;;;;4895900;28;88841;-75
2023/11/08 08:17:12;;;;;;;8.95;3.33;;;8.80;99.90;;;;;;4894777;28;90478;-78
2023/11/08 08:19:40;;;;;;;25.65;8.35;;;8.80;99.90;;;;;;4885905;28;92489;-79
2023/11/08 08:22:06;;;;;;;10.98;3.45;;;8.80;99.90;;;;;;4895983;28;89277;-77
2023/11/08 08:24:31;;;;;;;8.30;2.47;;;8.80;99.90;;;;;;4895600;28;87725;-77
2023/11/08 08:26:58;;;;;;;7.32;2.50;;;8.80;99.90;;;;;;4900091;28;90107;-74
2023/11/08 08:29:26;;;;;;;9.90;2.67;;;8.90;99.90;;;;;;4901402;28;88696;-78
2023/11/08 08:31:52;;;;;;;10.60;2.50;;;8.90;99.90;;;;;;4885447;28;91785;-78
2023/11/08 08:34:18;;;;;;;8.40;2.55;;;9.00;99.90;;;;;;4885009;28;87942;-76
2023/11/08 08:36:44;;;;;;;11.98;2.65;;;9.10;99.90;;;;;;4886740;28;89104;-76
2023/11/08 08:39:10;;;;;;;4.93;2.15;;;9.20;99.90;;;;;;4881181;28;92670;-80
2023/11/08 08:41:36;;;;;;;7.60;2.58;;;9.30;99.90;;;;;;4887370;28;92013;-78
2023/11/08 08:44:03;;;;;;;14.38;2.95;;;9.30;99.90;;;;;;4884271;28;87774;-75
2023/11/08 08:46:29;;;;;;;12.90;3.67;;;9.50;99.90;;;;;;4884625;28;90475;-76
2023/11/08 08:48:55;;;;;;;10.25;3.22;;;9.50;99.90;;;;;;4883536;28;91965;-75
2023/11/08 08:51:20;;;;;;;11.55;2.78;;;9.60;99.90;;;;;;4884908;28;91201;-76
2023/11/08 08:53:46;;;;;;;8.00;1.98;;;9.70;99.90;;;;;;4884969;28;88122;-75
2023/11/08 08:56:12;;;;;;;5.03;2.00;;;9.70;99.90;;;;;;4886669;28;89467;-77
2023/11/08 08:58:37;;;;;;;8.82;2.13;;;9.80;99.90;;;;;;4885759;28;90793;-79
2023/11/08 09:01:04;;;;;;;8.27;2.80;;;9.70;99.90;;;;;;4888302;28;91697;-80
2023/11/08 09:03:32;;;;;;;7.22;2.08;;;9.70;99.90;;;;;;4878243;28;89049;-78
2023/11/08 09:05:58;;;;;;;7.45;2.38;;;9.70;99.90;;;;;;4886673;28;90224;-78
2023/11/08 09:08:24;;;;;;;7.50;1.92;;;9.80;99.90;;;;;;4886449;28;88951;-78
2023/11/08 09:10:49;;;;;;;7.75;2.20;;;9.80;99.90;;;;;;4889112;28;90877;-77
2023/11/08 09:13:16;;;;;;;13.10;2.47;;;9.80;99.90;;;;;;4887511;28;88480;-79
2023/11/08 09:15:41;;;;;;;9.18;2.08;;;9.90;99.90;;;;;;4889554;28;89065;-77
2023/11/08 09:18:07;;;;;;;8.60;3.10;;;9.90;99.90;;;;;;4884361;28;90377;-76
2023/11/08 09:20:33;;;;;;;10.27;1.83;;;9.90;99.90;;;;;;4888448;28;91793;-76
2023/11/08 09:23:00;;;;;;;9.52;2.03;;;9.90;99.90;;;;;;4887696;28;87669;-78
2023/11/08 09:25:26;;;;;;;9.88;1.83;;;9.90;99.90;;;;;;4888122;28;90483;-76
2023/11/08 09:27:52;;;;;;;6.22;1.92;;;10.00;99.90;;;;;;4894782;28;89461;-78
2023/11/08 09:30:17;;;;;;;14.90;2.40;;;10.00;99.90;;;;;;4895411;28;92209;-75
2023/11/08 09:32:46;;;;;;;7.00;1.90;;;10.10;99.90;;;;;;4884336;28;87990;-77
2023/11/08 09:35:12;;;;;;;6.82;2.20;;;10.10;99.90;;;;;;4895724;28;88113;-81
2023/11/08 09:37:38;;;;;;;6.90;1.90;;;10.20;99.90;;;;;;4887125;28;91150;-77
2023/11/08 09:40:09;;;;;;;6.35;1.70;;;10.20;99.90;;;;;;4891927;28;88470;-75
2023/11/08 09:42:34;;;;;;;9.02;2.00;;;10.30;99.90;;;;;;4885485;28;87909;-79
2023/11/08 09:45:01;;;;;;;5.95;1.70;;;10.30;99.90;;;;;;4887323;28;90247;-77
2023/11/08 09:47:27;;;;;;;7.22;1.30;;;10.40;99.90;;;;;;4884049;28;91618;-76
2023/11/08 09:49:54;;;;;;;5.60;1.48;;;10.40;99.90;;;;;;4877409;28;91083;-81
2023/11/08 09:52:20;;;;;;;9.30;2.40;;;10.50;99.90;;;;;;4886863;28;88472;-78
2023/11/08 09:54:46;;;;;;;7.15;2.03;;;10.50;99.90;;;;;;4882740;28;91529;-79
2023/11/08 09:57:13;;;;;;;7.90;1.98;;;10.60;99.90;;;;;;4881405;28;90252;-81
2023/11/08 09:59:41;;;;;;;10.90;2.05;;;10.70;99.90;;;;;;4884809;28;88795;-74
2023/11/08 10:02:10;;;;;;;13.85;2.10;;;10.70;99.90;;;;;;4885408;28;87837;-76
2023/11/08 10:04:36;;;;;;;7.20;1.67;;;10.80;99.90;;;;;;4883625;28;89810;-77
2023/11/08 10:07:01;;;;;;;10.75;1.58;;;10.90;99.90;;;;;;4883779;28;90439;-75
2023/11/08 10:09:36;;;;;;;28.55;3.38;;;11.00;99.90;;;;;;4900669;28;90962;-74
2023/11/08 10:12:08;;;;;;;6.68;1.60;;;11.10;99.90;;;;;;4890434;28;88175;-74
2023/11/08 10:14:35;;;;;;;5.97;1.10;;;11.20;99.90;;;;;;4892963;28;90375;-75
2023/11/08 10:17:03;;;;;;;7.35;1.67;;;11.20;99.90;;;;;;4889272;28;89250;-76
2023/11/08 10:19:39;;;;;;;8.90;1.77;;;11.30;99.90;;;;;;4886163;28;92873;-73
2023/11/08 10:22:06;;;;;;;6.72;1.20;;;11.30;99.90;;;;;;4893686;28;87809;-71
2023/11/08 10:24:33;;;;;;;8.15;1.50;;;11.40;99.90;;;;;;4890847;28;87617;-73
2023/11/08 10:27:16;;;;;;;6.60;1.80;;;11.40;99.90;;;;;;4900046;28;88291;-76
2023/11/08 10:29:41;;;;;;;7.13;1.17;;;11.40;99.90;;;;;;4892439;28;88442;-73
2023/11/08 10:32:20;;;;;;;6.40;1.08;;;11.50;99.90;;;;;;4898602;28;88108;-75
2023/11/08 10:34:46;;;;;;;7.18;1.30;;;11.40;99.90;;;;;;4891467;28;91080;-72
2023/11/08 10:37:26;;;;;;;7.45;1.30;;;11.40;99.90;;;;;;4893312;28;91448;-72
2023/11/08 10:39:54;;;;;;;7.00;1.48;;;11.50;99.90;;;;;;4891290;28;92475;-75
2023/11/08 10:42:24;;;;;;;6.68;1.85;;;11.50;99.90;;;;;;4889150;28;88593;-77
2023/11/08 10:44:51;;;;;;;3.70;1.08;;;11.60;99.90;;;;;;4883146;28;90724;-73
2023/11/08 10:47:17;;;;;;;4.47;1.25;;;11.70;99.90;;;;;;4891943;28;87651;-75
2023/11/08 10:49:50;;;;;;;9.15;1.27;;;11.80;99.90;;;;;;4883314;28;91274;-73
2023/11/08 10:52:18;;;;;;;9.07;1.47;;;11.80;99.90;;;;;;4896293;28;87571;-74
2023/11/08 10:54:44;;;;;;;8.02;1.08;;;11.80;99.90;;;;;;4890942;28;90334;-74
2023/11/08 10:57:13;;;;;;;4.35;1.20;;;11.80;99.90;;;;;;4889355;28;88406;-75
2023/11/08 10:59:41;;;;;;;5.05;0.93;;;11.70;99.90;;;;;;4892022;28;90764;-74
2023/11/08 11:02:30;;;;;;;8.05;1.10;;;11.60;99.90;;;;;;4892327;28;87855;-74
2023/11/08 11:05:02;;;;;;;9.02;1.50;;;11.70;99.90;;;;;;4887586;28;90231;-77
2023/11/08 11:07:30;;;;;;;5.65;1.17;;;11.70;99.90;;;;;;4892868;28;92258;-72
2023/11/08 11:09:56;;;;;;;7.05;1.08;;;11.70;99.90;;;;;;4892942;28;90141;-77
2023/11/08 11:12:54;;;;;;;4.47;1.02;;;11.80;99.90;;;;;;4897219;28;87548;-76
2023/11/08 11:15:32;;;;;;;5.53;1.13;;;11.80;99.90;;;;;;4885853;28;90168;-75
2023/11/08 11:18:01;;;;;;;4.38;1.00;;;11.70;99.90;;;;;;4889803;28;91409;-74
2023/11/08 11:20:34;;;;;;;6.93;1.40;;;11.70;99.90;;;;;;4893724;28;91196;-74
2023/11/08 11:23:00;;;;;;;6.65;1.42;;;11.70;99.90;;;;;;4894298;28;87706;-74
2023/11/08 11:25:45;;;;;;;4.90;0.98;;;11.70;99.90;;;;;;4894023;28;90406;-75
2023/11/08 11:28:11;;;;;;;3.90;0.82;;;11.70;99.90;;;;;;4896117;28;91456;-79
2023/11/08 11:30:37;;;;;;;5.55;0.80;;;11.70;99.90;;;;;;4896421;28;88161;-72
2023/11/08 11:33:04;;;;;;;10.40;1.65;;;11.70;99.90;;;;;;4893881;28;88530;-75
2023/11/08 11:35:42;;;;;;;11.45;2.05;;;11.70;99.90;;;;;;4897271;28;90910;-77
2023/11/08 11:38:10;;;;;;;7.88;1.00;;;11.80;99.90;;;;;;4889149;28;94945;-75
2023/11/08 11:40:48;;;;;;;6.45;1.23;;;11.80;99.90;;;;;;4885038;28;91324;-75
2023/11/08 11:43:32;;;;;;;5.80;1.17;;;11.80;99.90;;;;;;4885473;28;87591;-74
2023/11/08 11:46:03;;;;;;;9.95;1.23;;;12.00;99.90;;;;;;4890575;28;90391;-76
2023/11/08 11:48:32;;;;;;;4.63;1.05;;;12.10;99.90;;;;;;4880283;28;91142;-74
2023/11/08 11:50:58;;;;;;;7.55;1.42;;;12.30;99.90;;;;;;4886441;28;91133;-76
2023/11/08 11:53:29;;;;;;;2.33;1.13;;;12.40;99.90;;;;;;4896928;28;87649;-76
2023/11/08 11:56:08;;;;;;;5.15;1.00;;;12.40;99.90;;;;;;4893297;28;90272;-78
2023/11/08 11:58:35;;;;;;;5.90;0.90;;;12.40;99.90;;;;;;4897842;28;92358;-77
2023/11/08 12:01:06;;;;;;;3.78;1.00;;;12.20;99.90;;;;;;4894189;28;88951;-76
2023/11/08 12:03:32;;;;;;;6.22;1.38;;;12.20;99.90;;;;;;4890552;28;87789;-74
2023/11/08 12:05:59;;;;;;;6.68;0.95;;;12.20;99.90;;;;;;4893536;28;89767;-73
2023/11/08 12:08:28;;;;;;;10.27;1.30;;;12.30;99.90;;;;;;4893006;28;90836;-78
2023/11/08 12:11:14;;;;;;;10.35;1.10;;;12.40;99.90;;;;;;4885810;28;93338;-78
2023/11/08 12:13:50;;;;;;;8.52;1.33;;;12.30;99.90;;;;;;4897882;28;88076;-74
2023/11/08 12:16:19;;;;;;;2.88;0.90;;;12.30;99.90;;;;;;4885902;28;90464;-78
2023/11/08 12:18:50;;;;;;;4.40;1.17;;;12.20;99.90;;;;;;4887518;28;91740;-75
2023/11/08 12:21:17;;;;;;;6.60;1.27;;;12.20;99.90;;;;;;4892886;28;91154;-76
2023/11/08 12:23:46;;;;;;;6.90;1.00;;;12.10;99.90;;;;;;4881616;28;89227;-77
2023/11/08 12:26:12;;;;;;;7.00;1.38;;;12.10;99.90;;;;;;4897787;28;89499;-78
2023/11/08 12:28:40;;;;;;;8.02;1.70;;;12.10;99.90;;;;;;4895317;28;90599;-72
2023/11/08 12:31:10;;;;;;;5.75;1.25;;;12.10;99.90;;;;;;4897341;28;88636;-78
2023/11/08 12:33:36;;;;;;;4.72;1.05;;;12.00;99.90;;;;;;4894879;28;88044;-76
2023/11/08 12:36:05;;;;;;;2.45;1.10;;;12.00;99.90;;;;;;4896944;28;90879;-76
2023/11/08 12:38:35;;;;;;;4.10;1.02;;;12.00;99.90;;;;;;4896271;28;90962;-76
2023/11/08 12:41:05;;;;;;;3.60;1.17;;;12.00;99.90;;;;;;4896080;28;91071;-80
2023/11/08 12:43:31;;;;;;;5.57;1.55;;;11.90;99.90;;;;;;4893973;28;87486;-76
2023/11/08 12:46:01;;;;;;;7.70;1.67;;;11.90;99.90;;;;;;4893383;28;90506;-74
2023/11/08 12:48:30;;;;;;;5.90;1.00;;;11.90;99.90;;;;;;4892655;28;91517;-76
2023/11/08 12:51:01;;;;;;;4.07;1.00;;;11.90;99.90;;;;;;4893730;28;93129;-78
2023/11/08 12:53:26;;;;;;;3.72;1.30;;;11.90;99.90;;;;;;4892275;28;87731;-75